sensor_id;sensor_type;location;lat;lon;timestamp;temperature;humidity
12386;DHT22;6257;57.634;18.310;2023-04-24T00:00:16;8.60;99.90
12386;DHT22;6257;57.634;18.310;2023-04-24T00:02:44;8.70;99.90
12386;DHT22;6257;57.634;18.310;2023-04-24T00:05:14;8.90;99.90
12386;DHT22;6257;57.634;18.310;2023-04-24T00:07:43;8.80;99.90
12386;DHT22;6257;57.634;18.310;2023-04-24T00:10:11;8.90;99.90
12386;DHT22;6257;57.634;18.310;2023-04-24T00:12:38;8.90;99.90
12386;DHT22;6257;57.634;18.310;2023-04-24T00:15:07;8.90;99.90
12386;DHT22;6257;57.634;18.310;2023-04-24T00:17:34;8.90;99.90
12386;DHT22;6257;57.634;18.310;2023-04-24T00:20:01;8.90;99.90
12386;DHT22;6257;57.634;18.310;2023-04-24T00:22:31;8.80;99.90
12386;DHT22;6257;57.634;18.310;2023-04-24T00:24:58;8.80;99.90
12386;DHT22;6257;57.634;18.310;2023-04-24T00:27:25;8.60;99.90
12386;DHT22;6257;57.634;18.310;2023-04-24T00:29:52;8.50;99.90
12386;DHT22;6257;57.634;18.310;2023-04-24T00:32:19;8.40;99.90
12386;DHT22;6257;57.634;18.310;2023-04-24T00:34:46;8.30;99.90
12386;DHT22;6257;57.634;18.310;2023-04-24T00:37:13;8.20;99.90
12386;DHT22;6257;57.634;18.310;2023-04-24T00:42:09;8.10;99.90
12386;DHT22;6257;57.634;18.310;2023-04-24T00:44:36;8.10;99.90
12386;DHT22;6257;57.634;18.310;2023-04-24T00:47:04;8.00;99.90
12386;DHT22;6257;57.634;18.310;2023-04-24T00:49:31;8.00;99.90
12386;DHT22;6257;57.634;18.310;2023-04-24T00:51:58;8.00;99.90
12386;DHT22;6257;57.634;18.310;2023-04-24T00:54:25;8.00;99.90
12386;DHT22;6257;57.634;18.310;2023-04-24T00:59:20;7.90;99.90
12386;DHT22;6257;57.634;18.310;2023-04-24T01:01:47;7.90;99.90
12386;DHT22;6257;57.634;18.310;2023-04-24T01:04:16;7.80;99.90
12386;DHT22;6257;57.634;18.310;2023-04-24T01:06:44;7.70;99.90
12386;DHT22;6257;57.634;18.310;2023-04-24T01:09:12;7.60;99.90
12386;DHT22;6257;57.634;18.310;2023-04-24T01:11:41;7.50;99.90
12386;DHT22;6257;57.634;18.310;2023-04-24T01:16:38;7.20;99.90
12386;DHT22;6257;57.634;18.310;2023-04-24T01:19:06;7.40;99.90
12386;DHT22;6257;57.634;18.310;2023-04-24T01:21:35;7.30;99.90
12386;DHT22;6257;57.634;18.310;2023-04-24T01:24:05;7.20;99.90
12386;DHT22;6257;57.634;18.310;2023-04-24T01:26:33;7.20;99.90
12386;DHT22;6257;57.634;18.310;2023-04-24T01:29:00;7.10;99.90
12386;DHT22;6257;57.634;18.310;2023-04-24T01:31:28;7.10;99.90
12386;DHT22;6257;57.634;18.310;2023-04-24T01:33:56;7.00;99.90
12386;DHT22;6257;57.634;18.310;2023-04-24T01:36:24;7.00;99.90
12386;DHT22;6257;57.634;18.310;2023-04-24T01:38:52;6.90;99.90
12386;DHT22;6257;57.634;18.310;2023-04-24T01:41:21;6.90;99.90
12386;DHT22;6257;57.634;18.310;2023-04-24T01:43:49;6.80;99.90
12386;DHT22;6257;57.634;18.310;2023-04-24T01:46:16;6.80;99.90
12386;DHT22;6257;57.634;18.310;2023-04-24T01:48:44;6.80;99.90
12386;DHT22;6257;57.634;18.310;2023-04-24T01:51:11;6.70;99.90
12386;DHT22;6257;57.634;18.310;2023-04-24T01:53:38;6.70;99.90
12386;DHT22;6257;57.634;18.310;2023-04-24T01:56:06;6.70;99.90
12386;DHT22;6257;57.634;18.310;2023-04-24T02:01:02;6.90;99.90
12386;DHT22;6257;57.634;18.310;2023-04-24T02:03:29;7.00;99.90
12386;DHT22;6257;57.634;18.310;2023-04-24T02:05:56;7.00;99.90
12386;DHT22;6257;57.634;18.310;2023-04-24T02:08:23;7.10;99.90
12386;DHT22;6257;57.634;18.310;2023-04-24T02:10:50;7.10;99.90
12386;DHT22;6257;57.634;18.310;2023-04-24T02:13:17;7.10;99.90
12386;DHT22;6257;57.634;18.310;2023-04-24T02:18:13;7.00;99.90
12386;DHT22;6257;57.634;18.310;2023-04-24T02:20:41;7.00;99.90
12386;DHT22;6257;57.634;18.310;2023-04-24T02:23:08;7.00;99.90
12386;DHT22;6257;57.634;18.310;2023-04-24T02:25:35;7.10;99.90
12386;DHT22;6257;57.634;18.310;2023-04-24T02:28:02;7.10;99.90
12386;DHT22;6257;57.634;18.310;2023-04-24T02:30:29;7.20;99.90
12386;DHT22;6257;57.634;18.310;2023-04-24T02:32:57;7.30;99.90
12386;DHT22;6257;57.634;18.310;2023-04-24T02:35:25;7.30;99.90
12386;DHT22;6257;57.634;18.310;2023-04-24T02:37:52;7.30;99.90
12386;DHT22;6257;57.634;18.310;2023-04-24T02:40:19;7.30;99.90
12386;DHT22;6257;57.634;18.310;2023-04-24T02:42:46;7.30;99.90
12386;DHT22;6257;57.634;18.310;2023-04-24T02:45:13;7.40;99.90
12386;DHT22;6257;57.634;18.310;2023-04-24T02:47:41;7.40;99.90
12386;DHT22;6257;57.634;18.310;2023-04-24T02:50:10;7.50;99.90
12386;DHT22;6257;57.634;18.310;2023-04-24T02:52:37;7.50;99.90
12386;DHT22;6257;57.634;18.310;2023-04-24T02:55:05;7.50;99.90
12386;DHT22;6257;57.634;18.310;2023-04-24T02:57:33;7.50;99.90
12386;DHT22;6257;57.634;18.310;2023-04-24T03:00:00;7.60;99.90
12386;DHT22;6257;57.634;18.310;2023-04-24T03:02:28;7.50;99.90
12386;DHT22;6257;57.634;18.310;2023-04-24T03:04:56;7.50;99.90
12386;DHT22;6257;57.634;18.310;2023-04-24T03:09:51;7.50;99.90
12386;DHT22;6257;57.634;18.310;2023-04-24T03:12:18;7.50;99.90
12386;DHT22;6257;57.634;18.310;2023-04-24T03:14:46;7.50;99.90
12386;DHT22;6257;57.634;18.310;2023-04-24T03:17:13;7.50;99.90
12386;DHT22;6257;57.634;18.310;2023-04-24T03:19:40;7.50;99.90
12386;DHT22;6257;57.634;18.310;2023-04-24T03:22:06;7.50;99.90
12386;DHT22;6257;57.634;18.310;2023-04-24T03:24:36;7.60;99.90
12386;DHT22;6257;57.634;18.310;2023-04-24T03:27:03;7.50;99.90
12386;DHT22;6257;57.634;18.310;2023-04-24T03:29:30;7.60;99.90
12386;DHT22;6257;57.634;18.310;2023-04-24T03:31:57;7.60;99.90
12386;DHT22;6257;57.634;18.310;2023-04-24T03:34:24;7.60;99.90
12386;DHT22;6257;57.634;18.310;2023-04-24T03:36:51;7.60;99.90
12386;DHT22;6257;57.634;18.310;2023-04-24T03:39:19;7.60;99.90
12386;DHT22;6257;57.634;18.310;2023-04-24T03:41:47;9.60;99.90
12386;DHT22;6257;57.634;18.310;2023-04-24T03:44:14;7.40;99.90
12386;DHT22;6257;57.634;18.310;2023-04-24T03:46:41;7.40;99.90
12386;DHT22;6257;57.634;18.310;2023-04-24T03:49:08;7.40;99.90
12386;DHT22;6257;57.634;18.310;2023-04-24T03:51:35;7.30;99.90
12386;DHT22;6257;57.634;18.310;2023-04-24T03:54:02;7.30;99.90
12386;DHT22;6257;57.634;18.310;2023-04-24T03:56:29;7.30;99.90
12386;DHT22;6257;57.634;18.310;2023-04-24T04:01:26;7.20;99.90
12386;DHT22;6257;57.634;18.310;2023-04-24T04:03:53;7.20;99.90
12386;DHT22;6257;57.634;18.310;2023-04-24T04:06:20;7.20;99.90
12386;DHT22;6257;57.634;18.310;2023-04-24T04:08:48;7.20;99.90
12386;DHT22;6257;57.634;18.310;2023-04-24T04:11:15;7.20;99.90
12386;DHT22;6257;57.634;18.310;2023-04-24T04:13:42;7.30;99.90
12386;DHT22;6257;57.634;18.310;2023-04-24T04:18:38;4.10;99.90
12386;DHT22;6257;57.634;18.310;2023-04-24T04:21:05;7.70;99.90
12386;DHT22;6257;57.634;18.310;2023-04-24T04:23:32;7.80;99.90
12386;DHT22;6257;57.634;18.310;2023-04-24T04:25:59;7.80;99.90
12386;DHT22;6257;57.634;18.310;2023-04-24T04:28:26;7.80;99.90
12386;DHT22;6257;57.634;18.310;2023-04-24T04:30:54;7.80;99.90
12386;DHT22;6257;57.634;18.310;2023-04-24T04:33:22;7.90;99.90
12386;DHT22;6257;57.634;18.310;2023-04-24T04:35:50;7.90;99.90
12386;DHT22;6257;57.634;18.310;2023-04-24T04:38:18;7.90;99.90
12386;DHT22;6257;57.634;18.310;2023-04-24T04:40:46;8.00;99.90
12386;DHT22;6257;57.634;18.310;2023-04-24T04:43:13;8.10;99.90
12386;DHT22;6257;57.634;18.310;2023-04-24T04:45:40;8.20;99.90
12386;DHT22;6257;57.634;18.310;2023-04-24T04:48:08;8.40;99.90
12386;DHT22;6257;57.634;18.310;2023-04-24T04:53:07;8.40;99.90
12386;DHT22;6257;57.634;18.310;2023-04-24T04:55:34;8.50;99.90
12386;DHT22;6257;57.634;18.310;2023-04-24T04:58:01;8.40;99.90
12386;DHT22;6257;57.634;18.310;2023-04-24T05:00:28;8.40;99.90
12386;DHT22;6257;57.634;18.310;2023-04-24T05:02:59;8.40;99.90
12386;DHT22;6257;57.634;18.310;2023-04-24T05:05:26;8.30;99.90
12386;DHT22;6257;57.634;18.310;2023-04-24T05:10:22;8.30;99.90
12386;DHT22;6257;57.634;18.310;2023-04-24T05:12:49;8.50;99.90
12386;DHT22;6257;57.634;18.310;2023-04-24T05:15:17;8.70;99.90
12386;DHT22;6257;57.634;18.310;2023-04-24T05:17:44;8.70;99.90
12386;DHT22;6257;57.634;18.310;2023-04-24T05:20:11;8.80;99.90
12386;DHT22;6257;57.634;18.310;2023-04-24T05:22:38;8.90;99.90
12386;DHT22;6257;57.634;18.310;2023-04-24T05:25:07;9.00;99.90
12386;DHT22;6257;57.634;18.310;2023-04-24T05:27:34;9.20;99.90
12386;DHT22;6257;57.634;18.310;2023-04-24T05:30:01;9.30;99.90
12386;DHT22;6257;57.634;18.310;2023-04-24T05:32:28;9.40;99.90
12386;DHT22;6257;57.634;18.310;2023-04-24T05:34:55;9.60;99.90
12386;DHT22;6257;57.634;18.310;2023-04-24T05:37:22;9.70;99.90
12386;DHT22;6257;57.634;18.310;2023-04-24T05:39:50;9.70;99.90
12386;DHT22;6257;57.634;18.310;2023-04-24T05:42:18;9.90;99.90
12386;DHT22;6257;57.634;18.310;2023-04-24T05:44:45;10.20;99.90
12386;DHT22;6257;57.634;18.310;2023-04-24T05:47:12;10.40;99.90
12386;DHT22;6257;57.634;18.310;2023-04-24T05:49:39;10.20;99.90
12386;DHT22;6257;57.634;18.310;2023-04-24T05:52:06;10.10;99.90
12386;DHT22;6257;57.634;18.310;2023-04-24T05:54:34;10.10;99.90
12386;DHT22;6257;57.634;18.310;2023-04-24T05:57:01;10.10;99.90
12386;DHT22;6257;57.634;18.310;2023-04-24T05:59:36;10.00;99.90
12386;DHT22;6257;57.634;18.310;2023-04-24T06:02:03;9.90;99.90
12386;DHT22;6257;57.634;18.310;2023-04-24T06:04:31;9.90;99.90
12386;DHT22;6257;57.634;18.310;2023-04-24T06:06:58;10.00;99.90
12386;DHT22;6257;57.634;18.310;2023-04-24T06:09:26;10.10;99.90
12386;DHT22;6257;57.634;18.310;2023-04-24T06:11:53;10.30;99.90
12386;DHT22;6257;57.634;18.310;2023-04-24T06:14:20;10.40;99.90
12386;DHT22;6257;57.634;18.310;2023-04-24T06:19:16;10.60;99.90
12386;DHT22;6257;57.634;18.310;2023-04-24T06:21:43;10.70;99.90
12386;DHT22;6257;57.634;18.310;2023-04-24T06:24:13;11.10;99.90
12386;DHT22;6257;57.634;18.310;2023-04-24T06:26:41;11.40;99.90
12386;DHT22;6257;57.634;18.310;2023-04-24T06:29:08;11.50;99.90
12386;DHT22;6257;57.634;18.310;2023-04-24T06:31:35;11.60;99.90
12386;DHT22;6257;57.634;18.310;2023-04-24T06:36:32;11.60;99.90
12386;DHT22;6257;57.634;18.310;2023-04-24T06:39:00;11.50;99.90
12386;DHT22;6257;57.634;18.310;2023-04-24T06:41:28;11.40;99.90
12386;DHT22;6257;57.634;18.310;2023-04-24T06:43:55;11.30;99.90
12386;DHT22;6257;57.634;18.310;2023-04-24T06:46:22;11.20;99.90
12386;DHT22;6257;57.634;18.310;2023-04-24T06:48:52;11.00;99.90
12386;DHT22;6257;57.634;18.310;2023-04-24T06:51:22;11.00;99.90
12386;DHT22;6257;57.634;18.310;2023-04-24T06:53:51;11.10;99.90
12386;DHT22;6257;57.634;18.310;2023-04-24T06:56:18;11.10;99.90
12386;DHT22;6257;57.634;18.310;2023-04-24T06:58:45;13.40;99.90
12386;DHT22;6257;57.634;18.310;2023-04-24T07:01:12;11.00;99.90
12386;DHT22;6257;57.634;18.310;2023-04-24T07:03:39;10.90;99.90
12386;DHT22;6257;57.634;18.310;2023-04-24T07:06:07;10.80;99.90
12386;DHT22;6257;57.634;18.310;2023-04-24T07:11:04;10.50;99.90
12386;DHT22;6257;57.634;18.310;2023-04-24T07:13:31;10.40;99.90
12386;DHT22;6257;57.634;18.310;2023-04-24T07:15:58;10.30;99.90
12386;DHT22;6257;57.634;18.310;2023-04-24T07:18:25;10.30;99.90
12386;DHT22;6257;57.634;18.310;2023-04-24T07:20:52;10.20;99.90
12386;DHT22;6257;57.634;18.310;2023-04-24T07:23:19;10.20;99.90
12386;DHT22;6257;57.634;18.310;2023-04-24T07:25:48;10.10;99.90
12386;DHT22;6257;57.634;18.310;2023-04-24T07:28:15;10.10;99.90
12386;DHT22;6257;57.634;18.310;2023-04-24T07:30:43;10.20;99.90
12386;DHT22;6257;57.634;18.310;2023-04-24T07:33:10;10.30;99.90
12386;DHT22;6257;57.634;18.310;2023-04-24T07:35:38;10.60;99.90
12386;DHT22;6257;57.634;18.310;2023-04-24T07:38:05;10.90;99.90
12386;DHT22;6257;57.634;18.310;2023-04-24T07:40:33;11.10;99.90
12386;DHT22;6257;57.634;18.310;2023-04-24T07:43:01;11.30;99.90
12386;DHT22;6257;57.634;18.310;2023-04-24T07:45:28;11.30;99.90
12386;DHT22;6257;57.634;18.310;2023-04-24T07:47:56;11.30;99.90
12386;DHT22;6257;57.634;18.310;2023-04-24T07:50:23;11.60;99.90
12386;DHT22;6257;57.634;18.310;2023-04-24T07:52:50;11.90;99.90
12386;DHT22;6257;57.634;18.310;2023-04-24T07:55:17;12.50;99.90
12386;DHT22;6257;57.634;18.310;2023-04-24T07:57:44;13.30;99.90
12386;DHT22;6257;57.634;18.310;2023-04-24T08:00:14;13.50;99.90
12386;DHT22;6257;57.634;18.310;2023-04-24T08:02:41;13.30;99.90
12386;DHT22;6257;57.634;18.310;2023-04-24T08:05:08;13.00;99.90
12386;DHT22;6257;57.634;18.310;2023-04-24T08:07:35;12.60;99.90
12386;DHT22;6257;57.634;18.310;2023-04-24T08:10:03;12.20;99.90
12386;DHT22;6257;57.634;18.310;2023-04-24T08:12:31;11.90;99.90
12386;DHT22;6257;57.634;18.310;2023-04-24T08:14:58;11.80;99.90
12386;DHT22;6257;57.634;18.310;2023-04-24T08:19:53;11.30;99.90
12386;DHT22;6257;57.634;18.310;2023-04-24T08:22:27;11.20;99.90
12386;DHT22;6257;57.634;18.310;2023-04-24T08:24:54;11.00;99.90
12386;DHT22;6257;57.634;18.310;2023-04-24T08:27:22;10.70;99.90
12386;DHT22;6257;57.634;18.310;2023-04-24T08:29:50;10.60;99.90
12386;DHT22;6257;57.634;18.310;2023-04-24T08:32:17;10.50;99.90
12386;DHT22;6257;57.634;18.310;2023-04-24T08:34:45;10.50;99.90
12386;DHT22;6257;57.634;18.310;2023-04-24T08:37:13;10.50;99.90
12386;DHT22;6257;57.634;18.310;2023-04-24T08:39:40;10.60;99.90
12386;DHT22;6257;57.634;18.310;2023-04-24T08:42:08;10.50;99.90
12386;DHT22;6257;57.634;18.310;2023-04-24T08:44:36;10.50;99.90
12386;DHT22;6257;57.634;18.310;2023-04-24T08:47:04;10.60;99.90
12386;DHT22;6257;57.634;18.310;2023-04-24T08:49:31;10.60;99.90
12386;DHT22;6257;57.634;18.310;2023-04-24T08:54:28;10.60;99.90
12386;DHT22;6257;57.634;18.310;2023-04-24T08:56:59;10.70;99.90
12386;DHT22;6257;57.634;18.310;2023-04-24T08:59:27;10.60;99.90
12386;DHT22;6257;57.634;18.310;2023-04-24T09:01:55;10.80;99.90
12386;DHT22;6257;57.634;18.310;2023-04-24T09:04:24;11.10;99.90
12386;DHT22;6257;57.634;18.310;2023-04-24T09:06:51;11.40;99.90
12386;DHT22;6257;57.634;18.310;2023-04-24T09:09:23;11.40;99.90
12386;DHT22;6257;57.634;18.310;2023-04-24T09:11:51;11.20;99.90
12386;DHT22;6257;57.634;18.310;2023-04-24T09:14:21;11.10;99.90
12386;DHT22;6257;57.634;18.310;2023-04-24T09:16:49;11.00;99.90
12386;DHT22;6257;57.634;18.310;2023-04-24T09:19:16;10.60;99.90
12386;DHT22;6257;57.634;18.310;2023-04-24T09:21:46;10.60;99.90
12386;DHT22;6257;57.634;18.310;2023-04-24T09:24:15;10.60;99.90
12386;DHT22;6257;57.634;18.310;2023-04-24T09:26:45;10.60;99.90
12386;DHT22;6257;57.634;18.310;2023-04-24T09:29:16;10.60;99.90
12386;DHT22;6257;57.634;18.310;2023-04-24T09:31:45;10.70;99.90
12386;DHT22;6257;57.634;18.310;2023-04-24T09:34:12;10.70;99.90
12386;DHT22;6257;57.634;18.310;2023-04-24T09:36:40;10.80;99.90
12386;DHT22;6257;57.634;18.310;2023-04-24T09:39:09;10.80;99.90
12386;DHT22;6257;57.634;18.310;2023-04-24T09:41:45;10.80;99.90
12386;DHT22;6257;57.634;18.310;2023-04-24T09:44:13;10.80;99.90
12386;DHT22;6257;57.634;18.310;2023-04-24T09:46:41;10.90;99.90
12386;DHT22;6257;57.634;18.310;2023-04-24T09:49:09;11.10;99.90
12386;DHT22;6257;57.634;18.310;2023-04-24T09:51:38;11.00;99.90
12386;DHT22;6257;57.634;18.310;2023-04-24T09:54:13;11.10;99.90
12386;DHT22;6257;57.634;18.310;2023-04-24T09:56:42;11.10;99.90
12386;DHT22;6257;57.634;18.310;2023-04-24T10:01:39;10.90;99.90
12386;DHT22;6257;57.634;18.310;2023-04-24T10:04:20;11.00;99.90
12386;DHT22;6257;57.634;18.310;2023-04-24T10:06:48;11.20;99.90
12386;DHT22;6257;57.634;18.310;2023-04-24T10:09:16;11.30;99.90
12386;DHT22;6257;57.634;18.310;2023-04-24T10:11:46;11.30;99.90
12386;DHT22;6257;57.634;18.310;2023-04-24T10:14:16;11.50;99.90
12386;DHT22;6257;57.634;18.310;2023-04-24T10:16:44;11.50;99.90
12386;DHT22;6257;57.634;18.310;2023-04-24T10:19:12;11.70;99.90
12386;DHT22;6257;57.634;18.310;2023-04-24T10:21:41;11.70;99.90
12386;DHT22;6257;57.634;18.310;2023-04-24T10:24:12;11.70;99.90
12386;DHT22;6257;57.634;18.310;2023-04-24T10:26:41;11.60;99.90
12386;DHT22;6257;57.634;18.310;2023-04-24T10:29:08;11.70;99.90
12386;DHT22;6257;57.634;18.310;2023-04-24T10:34:08;12.00;99.90
12386;DHT22;6257;57.634;18.310;2023-04-24T10:36:40;11.90;99.90
12386;DHT22;6257;57.634;18.310;2023-04-24T10:39:10;11.80;99.90
12386;DHT22;6257;57.634;18.310;2023-04-24T10:41:38;11.40;99.90
12386;DHT22;6257;57.634;18.310;2023-04-24T10:44:06;11.10;99.90
12386;DHT22;6257;57.634;18.310;2023-04-24T10:46:33;11.10;99.90
12386;DHT22;6257;57.634;18.310;2023-04-24T10:49:03;11.20;99.90
12386;DHT22;6257;57.634;18.310;2023-04-24T10:51:45;11.60;99.90
12386;DHT22;6257;57.634;18.310;2023-04-24T10:54:23;12.10;99.90
12386;DHT22;6257;57.634;18.310;2023-04-24T10:56:51;12.30;99.90
12386;DHT22;6257;57.634;18.310;2023-04-24T10:59:25;12.50;99.90
12386;DHT22;6257;57.634;18.310;2023-04-24T11:01:55;12.60;99.90
12386;DHT22;6257;57.634;18.310;2023-04-24T11:04:33;12.70;99.90
12386;DHT22;6257;57.634;18.310;2023-04-24T11:07:02;13.00;99.90
12386;DHT22;6257;57.634;18.310;2023-04-24T11:09:30;13.50;99.90
12386;DHT22;6257;57.634;18.310;2023-04-24T11:12:05;14.30;99.90
12386;DHT22;6257;57.634;18.310;2023-04-24T11:15:00;14.10;99.90
12386;DHT22;6257;57.634;18.310;2023-04-24T11:17:29;13.10;99.90
12386;DHT22;6257;57.634;18.310;2023-04-24T11:22:34;12.20;99.90
12386;DHT22;6257;57.634;18.310;2023-04-24T11:25:02;11.80;99.90
12386;DHT22;6257;57.634;18.310;2023-04-24T11:27:31;11.60;99.90
12386;DHT22;6257;57.634;18.310;2023-04-24T11:30:00;11.70;99.90
12386;DHT22;6257;57.634;18.310;2023-04-24T11:32:28;11.90;99.90
12386;DHT22;6257;57.634;18.310;2023-04-24T11:34:57;12.10;99.90
12386;DHT22;6257;57.634;18.310;2023-04-24T11:37:28;12.70;99.90
12386;DHT22;6257;57.634;18.310;2023-04-24T11:39:57;12.60;99.90
12386;DHT22;6257;57.634;18.310;2023-04-24T11:42:24;12.70;99.90
12386;DHT22;6257;57.634;18.310;2023-04-24T11:44:52;12.80;99.90
12386;DHT22;6257;57.634;18.310;2023-04-24T11:47:19;12.90;99.90
12386;DHT22;6257;57.634;18.310;2023-04-24T11:49:50;12.90;99.90
12386;DHT22;6257;57.634;18.310;2023-04-24T11:52:17;12.90;99.90
12386;DHT22;6257;57.634;18.310;2023-04-24T11:57:19;13.10;99.90
12386;DHT22;6257;57.634;18.310;2023-04-24T11:59:46;13.20;99.90
12386;DHT22;6257;57.634;18.310;2023-04-24T12:02:23;13.60;99.90
12386;DHT22;6257;57.634;18.310;2023-04-24T12:04:51;13.80;99.90
12386;DHT22;6257;57.634;18.310;2023-04-24T12:07:19;14.00;99.90
12386;DHT22;6257;57.634;18.310;2023-04-24T12:09:47;14.10;99.90
12386;DHT22;6257;57.634;18.310;2023-04-24T12:12:16;14.20;99.90
12386;DHT22;6257;57.634;18.310;2023-04-24T12:14:47;14.40;99.90
12386;DHT22;6257;57.634;18.310;2023-04-24T12:17:14;14.60;99.90
12386;DHT22;6257;57.634;18.310;2023-04-24T12:19:46;13.00;99.90
12386;DHT22;6257;57.634;18.310;2023-04-24T12:22:13;14.50;99.90
12386;DHT22;6257;57.634;18.310;2023-04-24T12:25:00;14.30;99.90
12386;DHT22;6257;57.634;18.310;2023-04-24T12:27:31;14.30;99.90
12386;DHT22;6257;57.634;18.310;2023-04-24T12:30:00;14.00;99.90
12386;DHT22;6257;57.634;18.310;2023-04-24T12:32:28;13.90;99.90
12386;DHT22;6257;57.634;18.310;2023-04-24T12:34:56;13.80;99.90
12386;DHT22;6257;57.634;18.310;2023-04-24T12:37:24;13.70;99.90
12386;DHT22;6257;57.634;18.310;2023-04-24T12:40:02;13.90;99.90
12386;DHT22;6257;57.634;18.310;2023-04-24T12:45:03;13.50;99.90
12386;DHT22;6257;57.634;18.310;2023-04-24T12:47:31;13.90;99.90
12386;DHT22;6257;57.634;18.310;2023-04-24T12:49:58;13.80;99.90
12386;DHT22;6257;57.634;18.310;2023-04-24T12:52:27;13.60;99.90
12386;DHT22;6257;57.634;18.310;2023-04-24T12:54:55;13.40;99.90
12386;DHT22;6257;57.634;18.310;2023-04-24T12:57:22;13.30;99.90
12386;DHT22;6257;57.634;18.310;2023-04-24T12:59:53;13.30;99.90
12386;DHT22;6257;57.634;18.310;2023-04-24T13:02:20;13.30;99.90
12386;DHT22;6257;57.634;18.310;2023-04-24T13:04:48;13.30;99.90
12386;DHT22;6257;57.634;18.310;2023-04-24T13:07:16;13.40;99.90
12386;DHT22;6257;57.634;18.310;2023-04-24T13:09:45;13.40;99.90
12386;DHT22;6257;57.634;18.310;2023-04-24T13:12:12;13.60;99.90
12386;DHT22;6257;57.634;18.310;2023-04-24T13:14:39;13.80;99.90
12386;DHT22;6257;57.634;18.310;2023-04-24T13:17:08;13.80;99.90
12386;DHT22;6257;57.634;18.310;2023-04-24T13:19:38;13.60;99.90
12386;DHT22;6257;57.634;18.310;2023-04-24T13:22:06;13.30;99.90
12386;DHT22;6257;57.634;18.310;2023-04-24T13:24:33;13.10;99.90
12386;DHT22;6257;57.634;18.310;2023-04-24T13:27:00;13.20;99.90
12386;DHT22;6257;57.634;18.310;2023-04-24T13:29:28;13.20;99.90
12386;DHT22;6257;57.634;18.310;2023-04-24T13:31:55;13.10;99.90
12386;DHT22;6257;57.634;18.310;2023-04-24T13:34:24;13.20;99.90
12386;DHT22;6257;57.634;18.310;2023-04-24T13:36:52;13.20;99.90
12386;DHT22;6257;57.634;18.310;2023-04-24T13:39:20;13.20;99.90
12386;DHT22;6257;57.634;18.310;2023-04-24T13:41:47;13.10;99.90
12386;DHT22;6257;57.634;18.310;2023-04-24T13:44:14;12.90;99.90
12386;DHT22;6257;57.634;18.310;2023-04-24T13:46:42;13.00;99.90
12386;DHT22;6257;57.634;18.310;2023-04-24T13:49:10;13.00;99.90
12386;DHT22;6257;57.634;18.310;2023-04-24T13:54:06;13.00;99.90
12386;DHT22;6257;57.634;18.310;2023-04-24T13:56:33;13.10;99.90
12386;DHT22;6257;57.634;18.310;2023-04-24T13:59:01;13.00;99.90
12386;DHT22;6257;57.634;18.310;2023-04-24T14:01:28;13.00;99.90
12386;DHT22;6257;57.634;18.310;2023-04-24T14:03:55;13.10;99.90
12386;DHT22;6257;57.634;18.310;2023-04-24T14:06:22;13.10;99.90
12386;DHT22;6257;57.634;18.310;2023-04-24T14:11:19;13.20;99.90
12386;DHT22;6257;57.634;18.310;2023-04-24T14:13:46;13.50;99.90
12386;DHT22;6257;57.634;18.310;2023-04-24T14:16:13;13.80;99.90
12386;DHT22;6257;57.634;18.310;2023-04-24T14:18:40;13.70;99.90
12386;DHT22;6257;57.634;18.310;2023-04-24T14:21:08;13.60;99.90
12386;DHT22;6257;57.634;18.310;2023-04-24T14:23:35;13.60;99.90
12386;DHT22;6257;57.634;18.310;2023-04-24T14:26:03;13.50;99.90
12386;DHT22;6257;57.634;18.310;2023-04-24T14:28:30;13.60;99.90
12386;DHT22;6257;57.634;18.310;2023-04-24T14:30:57;13.30;99.90
12386;DHT22;6257;57.634;18.310;2023-04-24T14:33:25;13.00;99.90
12386;DHT22;6257;57.634;18.310;2023-04-24T14:35:52;12.80;99.90
12386;DHT22;6257;57.634;18.310;2023-04-24T14:38:19;12.90;99.90
12386;DHT22;6257;57.634;18.310;2023-04-24T14:40:46;12.90;99.90
12386;DHT22;6257;57.634;18.310;2023-04-24T14:43:15;13.00;99.90
12386;DHT22;6257;57.634;18.310;2023-04-24T14:45:42;12.90;99.90
12386;DHT22;6257;57.634;18.310;2023-04-24T14:48:09;12.90;99.90
12386;DHT22;6257;57.634;18.310;2023-04-24T14:50:36;12.70;99.90
12386;DHT22;6257;57.634;18.310;2023-04-24T14:53:04;12.60;99.90
12386;DHT22;6257;57.634;18.310;2023-04-24T14:55:31;12.70;99.90
12386;DHT22;6257;57.634;18.310;2023-04-24T14:57:59;12.70;99.90
12386;DHT22;6257;57.634;18.310;2023-04-24T15:00:28;12.60;99.90
12386;DHT22;6257;57.634;18.310;2023-04-24T15:02:56;12.50;99.90
12386;DHT22;6257;57.634;18.310;2023-04-24T15:05:23;12.40;99.90
12386;DHT22;6257;57.634;18.310;2023-04-24T15:07:50;12.30;99.90
12386;DHT22;6257;57.634;18.310;2023-04-24T15:10:17;12.10;99.90
12386;DHT22;6257;57.634;18.310;2023-04-24T15:12:45;12.10;99.90
12386;DHT22;6257;57.634;18.310;2023-04-24T15:15:12;12.00;99.90
12386;DHT22;6257;57.634;18.310;2023-04-24T15:17:40;12.00;99.90
12386;DHT22;6257;57.634;18.310;2023-04-24T15:20:08;11.90;99.90
12386;DHT22;6257;57.634;18.310;2023-04-24T15:22:36;11.80;99.90
12386;DHT22;6257;57.634;18.310;2023-04-24T15:25:03;11.80;99.90
12386;DHT22;6257;57.634;18.310;2023-04-24T15:27:40;11.90;99.90
12386;DHT22;6257;57.634;18.310;2023-04-24T15:30:08;12.10;99.90
12386;DHT22;6257;57.634;18.310;2023-04-24T15:32:36;12.10;99.90
12386;DHT22;6257;57.634;18.310;2023-04-24T15:35:05;11.90;99.90
12386;DHT22;6257;57.634;18.310;2023-04-24T15:37:32;12.10;99.90
12386;DHT22;6257;57.634;18.310;2023-04-24T15:39:59;12.00;99.90
12386;DHT22;6257;57.634;18.310;2023-04-24T15:42:28;11.80;99.90
12386;DHT22;6257;57.634;18.310;2023-04-24T15:44:55;11.40;99.90
12386;DHT22;6257;57.634;18.310;2023-04-24T15:47:22;9.70;99.90
12386;DHT22;6257;57.634;18.310;2023-04-24T15:49:49;10.80;99.90
12386;DHT22;6257;57.634;18.310;2023-04-24T15:52:19;10.50;99.90
12386;DHT22;6257;57.634;18.310;2023-04-24T15:54:46;10.00;99.90
12386;DHT22;6257;57.634;18.310;2023-04-24T15:57:13;9.80;99.90
12386;DHT22;6257;57.634;18.310;2023-04-24T15:59:40;9.60;99.90
12386;DHT22;6257;57.634;18.310;2023-04-24T16:02:08;9.50;99.90
12386;DHT22;6257;57.634;18.310;2023-04-24T16:04:36;9.70;99.90
12386;DHT22;6257;57.634;18.310;2023-04-24T16:07:03;10.00;99.90
12386;DHT22;6257;57.634;18.310;2023-04-24T16:09:33;10.30;99.90
12386;DHT22;6257;57.634;18.310;2023-04-24T16:12:00;10.50;99.90
12386;DHT22;6257;57.634;18.310;2023-04-24T16:14:27;10.50;99.90
12386;DHT22;6257;57.634;18.310;2023-04-24T16:16:54;10.40;99.90
12386;DHT22;6257;57.634;18.310;2023-04-24T16:19:21;10.40;99.90
12386;DHT22;6257;57.634;18.310;2023-04-24T16:21:48;10.40;99.90
12386;DHT22;6257;57.634;18.310;2023-04-24T16:24:16;10.40;99.90
12386;DHT22;6257;57.634;18.310;2023-04-24T16:29:12;10.30;99.90
12386;DHT22;6257;57.634;18.310;2023-04-24T16:31:40;10.30;99.90
12386;DHT22;6257;57.634;18.310;2023-04-24T16:34:07;10.20;99.90
12386;DHT22;6257;57.634;18.310;2023-04-24T16:36:34;9.90;99.90
12386;DHT22;6257;57.634;18.310;2023-04-24T16:39:01;9.80;99.90